Time;durP1;ratioP1;P1;durP2;ratioP2;P2;SDS_P1;SDS_P2;PMS_P1;PMS_P2;Temp;Humidity;BMP_temperature;BMP_pressure;BME280_temperature;BME280_humidity;BME280_pressure;Samples;Min_cycle;Max_cycle;Signal;HPM_P1;HPM_P2
2023/01/20 00:01:10;;;;;;;11.73;5.43;;;22.70;59.50;;;;;;5091320;28;20034;-76
2023/01/20 00:03:41;;;;;;;11.40;4.25;;;22.80;59.40;;;;;;5091571;28;20032;-76
2023/01/20 00:06:08;;;;;;;8.07;2.55;;;22.70;59.40;;;;;;5091224;28;20634;-77
2023/01/20 00:08:34;;;;;;;7.50;2.53;;;22.80;59.40;;;;;;5090719;28;20063;-76
2023/01/20 00:11:08;;;;;;;9.32;2.72;;;22.70;59.50;;;;;;5091001;28;20040;-76
2023/01/20 00:13:35;;;;;;;8.75;2.75;;;22.80;59.30;;;;;;5091132;28;20028;-76
2023/01/20 00:16:08;;;;;;;5.88;2.55;;;22.80;59.10;;;;;;5090985;28;20036;-76
2023/01/20 00:18:34;;;;;;;4.38;2.38;;;22.80;59.10;;;;;;5091057;28;20024;-76
2023/01/20 00:21:08;;;;;;;7.90;2.55;;;22.90;59.20;;;;;;5091073;28;20032;-76
2023/01/20 00:23:35;;;;;;;7.60;2.67;;;22.80;59.10;;;;;;5091166;28;20036;-76
2023/01/20 00:26:09;;;;;;;6.43;2.22;;;22.80;59.20;;;;;;5091006;28;20477;-76
2023/01/20 00:28:36;;;;;;;9.02;2.42;;;22.90;59.30;;;;;;5090997;28;20036;-76
2023/01/20 00:31:15;;;;;;;7.15;2.60;;;22.80;59.00;;;;;;5090963;28;20047;-76
2023/01/20 00:33:42;;;;;;;4.70;2.47;;;22.80;59.10;;;;;;5090737;28;20468;-76
2023/01/20 00:36:09;;;;;;;6.15;2.78;;;22.70;59.10;;;;;;5092419;28;20064;-76
2023/01/20 00:38:35;;;;;;;10.27;3.25;;;22.70;59.20;;;;;;5094628;28;20039;-76
2023/01/20 00:41:01;;;;;;;11.02;2.88;;;22.80;59.30;;;;;;5094876;28;20055;-77
2023/01/20 00:43:28;;;;;;;10.80;3.40;;;22.80;59.30;;;;;;5094708;28;20070;-76
2023/01/20 00:45:54;;;;;;;16.42;3.10;;;22.60;59.30;;;;;;5094706;28;20035;-76
2023/01/20 00:48:20;;;;;;;14.38;3.05;;;22.70;59.50;;;;;;5094397;28;20024;-76
2023/01/20 00:50:46;;;;;;;15.10;3.80;;;22.70;59.60;;;;;;5094388;28;20441;-76
2023/01/20 00:53:12;;;;;;;7.53;3.10;;;22.60;59.50;;;;;;5094372;28;20372;-76
2023/01/20 00:55:38;;;;;;;6.55;3.50;;;22.60;59.60;;;;;;5094445;28;20032;-76
2023/01/20 00:58:04;;;;;;;11.13;3.33;;;22.50;59.30;;;;;;5094530;28;20081;-76
2023/01/20 01:00:30;;;;;;;7.63;3.17;;;22.50;59.40;;;;;;5094274;28;20040;-77
2023/01/20 01:02:56;;;;;;;9.60;3.08;;;22.60;59.50;;;;;;5094368;28;20032;-76
2023/01/20 01:05:22;;;;;;;6.55;3.22;;;22.50;59.40;;;;;;5094155;28;20024;-76
2023/01/20 01:07:48;;;;;;;10.93;2.92;;;22.40;59.30;;;;;;5093713;28;20051;-76
2023/01/20 01:10:15;;;;;;;7.57;2.85;;;22.50;59.40;;;;;;5094053;28;20058;-76
2023/01/20 01:12:41;;;;;;;10.43;2.88;;;22.60;59.40;;;;;;5094187;28;20579;-77
2023/01/20 01:15:07;;;;;;;8.02;2.50;;;22.60;59.30;;;;;;5094272;28;20028;-77
2023/01/20 01:17:33;;;;;;;10.55;2.65;;;22.60;59.30;;;;;;5093792;28;20495;-76
2023/01/20 01:19:59;;;;;;;12.73;2.50;;;22.60;59.20;;;;;;5094159;28;20024;-76
2023/01/20 01:22:25;;;;;;;10.65;2.25;;;22.60;59.20;;;;;;5092231;28;20131;-76
2023/01/20 01:24:51;;;;;;;11.90;2.90;;;22.70;59.30;;;;;;5093712;28;20717;-76
2023/01/20 01:27:18;;;;;;;10.43;3.10;;;22.60;59.10;;;;;;5075794;28;20178;-76
2023/01/20 01:29:44;;;;;;;12.07;2.40;;;22.50;59.10;;;;;;5093777;28;20492;-76
2023/01/20 01:32:10;;;;;;;9.40;2.80;;;22.70;59.20;;;;;;5093668;28;20075;-76
2023/01/20 01:34:35;;;;;;;8.77;3.10;;;22.60;59.10;;;;;;5093807;28;20031;-76
2023/01/20 01:37:01;;;;;;;18.33;2.85;;;22.60;59.10;;;;;;5093609;28;20028;-77
2023/01/20 01:39:27;;;;;;;11.45;2.65;;;22.60;59.30;;;;;;5093463;28;20026;-76
2023/01/20 01:41:53;;;;;;;15.77;2.70;;;22.50;59.40;;;;;;5092264;28;20120;-76
2023/01/20 01:44:20;;;;;;;6.90;2.80;;;22.60;59.30;;;;;;5093479;28;20111;-76
2023/01/20 01:46:46;;;;;;;14.35;2.53;;;22.50;59.40;;;;;;5092164;28;20039;-76
2023/01/20 01:49:29;;;;;;;11.82;3.65;;;22.40;59.40;;;;;;5091488;28;20075;-77
2023/01/20 01:52:07;;;;;;;9.45;2.67;;;22.50;59.40;;;;;;5093599;28;20043;-76
2023/01/20 01:54:41;;;;;;;8.45;2.75;;;22.40;59.50;;;;;;5093464;28;20028;-76
2023/01/20 01:57:08;;;;;;;14.13;2.67;;;22.40;59.50;;;;;;5093195;28;20440;-76
2023/01/20 01:59:36;;;;;;;9.27;2.80;;;22.40;59.40;;;;;;5091929;28;20040;-76
2023/01/20 02:02:02;;;;;;;4.97;2.55;;;22.40;59.40;;;;;;5093302;28;20403;-77
2023/01/20 02:04:30;;;;;;;9.73;2.60;;;22.40;59.50;;;;;;5093087;28;20028;-76
2023/01/20 02:07:11;;;;;;;14.90;2.88;;;22.50;59.60;;;;;;5092997;28;20476;-76
2023/01/20 02:09:37;;;;;;;8.55;2.63;;;22.40;59.50;;;;;;5093029;28;20040;-77
2023/01/20 02:12:08;;;;;;;10.50;3.03;;;22.40;59.50;;;;;;5093107;28;20040;-76
2023/01/20 02:14:40;;;;;;;14.93;2.80;;;22.40;59.50;;;;;;5092898;28;20035;-76
2023/01/20 02:17:25;;;;;;;12.63;2.80;;;22.40;59.50;;;;;;5093014;28;20032;-76
2023/01/20 02:20:03;;;;;;;8.70;2.45;;;22.50;59.50;;;;;;5092543;28;20112;-76
2023/01/20 02:22:32;;;;;;;14.13;2.83;;;22.50;59.60;;;;;;5092898;28;20047;-76
2023/01/20 02:25:16;;;;;;;7.70;2.35;;;22.40;59.30;;;;;;5092743;28;20028;-76
2023/01/20 02:28:09;;;;;;;8.32;2.42;;;22.40;59.30;;;;;;5092624;28;20036;-76
2023/01/20 02:31:07;;;;;;;11.85;2.58;;;22.40;59.40;;;;;;5092702;28;20039;-76
2023/01/20 02:33:41;;;;;;;13.32;3.33;;;22.30;59.50;;;;;;5074733;28;20416;-76
2023/01/20 02:36:17;;;;;;;9.52;2.55;;;22.40;59.60;;;;;;5092658;28;20037;-76
2023/01/20 02:38:46;;;;;;;9.68;2.88;;;22.20;59.70;;;;;;5092360;28;20032;-76
2023/01/20 02:41:38;;;;;;;8.48;2.75;;;22.20;59.80;;;;;;5092278;28;20040;-76
2023/01/20 02:44:15;;;;;;;13.40;2.42;;;22.20;59.80;;;;;;5092300;28;20073;-76
2023/01/20 02:47:03;;;;;;;8.13;2.53;;;22.20;59.90;;;;;;5092008;28;20034;-76
2023/01/20 02:49:38;;;;;;;5.55;2.80;;;22.20;59.90;;;;;;5092117;28;20500;-76
2023/01/20 02:52:14;;;;;;;9.30;2.20;;;22.10;59.80;;;;;;5091915;28;20032;-77
2023/01/20 02:54:45;;;;;;;13.82;2.75;;;22.10;60.00;;;;;;5091788;28;20067;-76
2023/01/20 02:57:15;;;;;;;7.55;2.38;;;22.20;60.00;;;;;;5091990;28;20040;-76
2023/01/20 02:59:45;;;;;;;7.60;2.40;;;22.10;59.90;;;;;;5091889;28;20031;-76
2023/01/20 03:02:19;;;;;;;8.40;2.38;;;22.10;59.90;;;;;;5092142;28;20028;-76
2023/01/20 03:05:00;;;;;;;3.72;2.75;;;22.10;59.90;;;;;;5090420;28;20043;-76
2023/01/20 03:07:30;;;;;;;7.05;2.30;;;22.10;59.90;;;;;;5091788;28;20028;-76
2023/01/20 03:09:59;;;;;;;10.95;2.63;;;22.20;59.80;;;;;;5091574;28;20036;-76
2023/01/20 03:12:51;;;;;;;18.73;3.90;;;22.20;59.70;;;;;;5092097;28;20073;-76
2023/01/20 03:15:22;;;;;;;9.65;2.35;;;22.20;59.50;;;;;;5091141;28;20036;-76
2023/01/20 03:17:48;;;;;;;10.32;2.38;;;22.30;59.60;;;;;;5091242;28;20067;-76
2023/01/20 03:20:14;;;;;;;6.35;2.70;;;22.20;59.60;;;;;;5090981;28;20562;-76
2023/01/20 03:22:40;;;;;;;8.48;2.13;;;22.30;59.50;;;;;;5091156;28;20099;-76
2023/01/20 03:25:09;;;;;;;9.43;2.40;;;22.20;59.20;;;;;;5090997;28;20079;-76
2023/01/20 03:27:35;;;;;;;6.25;2.13;;;22.30;59.40;;;;;;5091568;28;20028;-76
2023/01/20 03:30:04;;;;;;;8.23;2.55;;;22.20;59.40;;;;;;5091470;28;20608;-76
2023/01/20 03:32:31;;;;;;;9.95;2.90;;;22.10;59.50;;;;;;5091768;28;20122;-76
2023/01/20 03:34:58;;;;;;;16.60;2.83;;;22.20;59.60;;;;;;5091640;28;20027;-76
2023/01/20 03:37:24;;;;;;;9.07;2.28;;;22.10;59.60;;;;;;5090147;28;20380;-76
2023/01/20 03:39:50;;;;;;;7.55;2.45;;;22.10;59.70;;;;;;5091314;28;20036;-76
2023/01/20 03:42:30;;;;;;;6.18;2.40;;;22.00;59.60;;;;;;5091484;28;20114;-76
2023/01/20 03:45:08;;;;;;;7.63;2.38;;;22.10;59.80;;;;;;5091432;28;20028;-76
2023/01/20 03:47:46;;;;;;;5.10;2.25;;;22.10;59.70;;;;;;5091494;28;20099;-76
2023/01/20 03:50:34;;;;;;;14.43;2.65;;;22.10;59.70;;;;;;5091151;28;20122;-76
2023/01/20 03:53:16;;;;;;;6.00;2.22;;;22.10;59.70;;;;;;5091497;28;20051;-76
2023/01/20 03:55:51;;;;;;;7.80;2.30;;;22.00;59.80;;;;;;5090153;28;20055;-76
2023/01/20 03:58:26;;;;;;;3.40;1.63;;;22.10;59.80;;;;;;5091295;28;20474;-76
2023/01/20 04:00:53;;;;;;;7.30;2.05;;;22.00;59.70;;;;;;5091205;28;20032;-76
2023/01/20 04:03:28;;;;;;;4.75;2.15;;;22.00;59.60;;;;;;5091556;28;20074;-76
2023/01/20 04:05:57;;;;;;;5.93;1.88;;;22.10;59.70;;;;;;5091203;28;20040;-76
2023/01/20 04:08:28;;;;;;;8.65;2.28;;;22.10;59.60;;;;;;5091110;28;20145;-76
2023/01/20 04:10:56;;;;;;;3.67;2.17;;;22.10;59.50;;;;;;5092057;28;20369;-76
2023/01/20 04:13:22;;;;;;;7.18;2.72;;;22.10;59.60;;;;;;5095247;28;20469;-76
2023/01/20 04:15:48;;;;;;;14.68;2.33;;;22.10;59.50;;;;;;5095431;28;20488;-76
2023/01/20 04:18:20;;;;;;;8.13;2.47;;;22.10;59.50;;;;;;5092831;28;20067;-76
2023/01/20 04:20:55;;;;;;;7.43;2.20;;;22.20;59.30;;;;;;5095286;28;20028;-76
2023/01/20 04:23:45;;;;;;;9.70;2.63;;;22.20;59.20;;;;;;5094105;28;20031;-76
2023/01/20 04:26:11;;;;;;;3.55;2.05;;;22.10;59.30;;;;;;5071905;28;20067;-76
2023/01/20 04:28:36;;;;;;;8.90;3.40;;;22.10;59.30;;;;;;5072041;28;20551;-76
2023/01/20 04:31:03;;;;;;;5.15;1.88;;;22.10;59.40;;;;;;5071938;28;20125;-76
2023/01/20 04:33:29;;;;;;;7.03;2.30;;;22.10;59.30;;;;;;5072326;28;20381;-76
2023/01/20 04:35:54;;;;;;;6.90;2.85;;;22.10;59.10;;;;;;5071842;28;20044;-76
2023/01/20 04:38:20;;;;;;;5.28;2.22;;;22.20;58.90;;;;;;5071933;28;20021;-76
2023/01/20 04:40:46;;;;;;;5.38;2.85;;;22.20;58.70;;;;;;5071533;28;20123;-77
2023/01/20 04:43:12;;;;;;;10.80;3.05;;;22.30;58.70;;;;;;5071889;28;20107;-76
2023/01/20 04:45:40;;;;;;;8.65;2.50;;;22.20;58.50;;;;;;5071826;28;20052;-76
2023/01/20 04:48:07;;;;;;;8.13;2.80;;;22.20;58.50;;;;;;5071591;28;20400;-76
2023/01/20 04:50:38;;;;;;;6.85;3.03;;;22.00;58.60;;;;;;5071690;28;20032;-76
2023/01/20 04:53:04;;;;;;;7.82;2.40;;;22.10;59.00;;;;;;5072053;28;20115;-75
2023/01/20 04:55:32;;;;;;;10.35;2.90;;;22.00;59.10;;;;;;5055662;28;20098;-76
2023/01/20 04:57:58;;;;;;;11.80;2.20;;;22.10;59.30;;;;;;5090244;28;20032;-76
2023/01/20 05:00:24;;;;;;;10.75;4.43;;;22.00;59.20;;;;;;5094195;28;20203;-76
2023/01/20 05:02:49;;;;;;;8.35;2.97;;;22.20;58.80;;;;;;5094296;28;20039;-76
2023/01/20 05:05:15;;;;;;;8.93;2.75;;;22.20;58.60;;;;;;5094245;28;20501;-76
2023/01/20 05:07:42;;;;;;;9.63;3.15;;;22.30;58.60;;;;;;5092800;28;20052;-77
2023/01/20 05:10:08;;;;;;;8.52;2.83;;;22.30;58.40;;;;;;5093975;28;20028;-77
2023/01/20 05:12:35;;;;;;;9.93;3.13;;;22.30;58.50;;;;;;5094321;28;20055;-78
2023/01/20 05:15:01;;;;;;;7.43;2.72;;;22.30;58.20;;;;;;5094208;28;20051;-78
2023/01/20 05:17:27;;;;;;;13.30;3.30;;;22.60;61.50;;;;;;5094304;28;20430;-76
2023/01/20 05:19:53;;;;;;;11.55;4.05;;;23.00;62.00;;;;;;5091417;28;20048;-77
2023/01/20 05:22:19;;;;;;;12.05;3.63;;;23.40;62.80;;;;;;5092913;28;20024;-77
2023/01/20 05:24:45;;;;;;;6.38;2.60;;;23.50;60.30;;;;;;5093530;28;20032;-75
2023/01/20 05:27:11;;;;;;;7.80;3.35;;;23.30;57.80;;;;;;5094076;28;20024;-78
2023/01/20 05:29:37;;;;;;;7.43;2.97;;;23.20;56.50;;;;;;5093537;28;20540;-75
2023/01/20 05:32:03;;;;;;;8.30;3.80;;;23.30;55.60;;;;;;5093582;28;20365;-75
2023/01/20 05:34:29;;;;;;;8.00;3.80;;;23.20;54.90;;;;;;5091988;28;20088;-75
2023/01/20 05:36:55;;;;;;;11.70;3.65;;;23.10;54.80;;;;;;5093722;28;20398;-75
2023/01/20 05:39:21;;;;;;;10.70;2.95;;;23.00;55.30;;;;;;5093377;28;20028;-75
2023/01/20 05:41:47;;;;;;;9.25;4.03;;;22.90;55.90;;;;;;5093398;28;20118;-75
2023/01/20 05:44:14;;;;;;;10.40;3.75;;;22.80;56.40;;;;;;5093112;28;20132;-74
2023/01/20 05:46:40;;;;;;;10.65;3.13;;;22.80;56.90;;;;;;5093393;28;20036;-75
2023/01/20 05:49:06;;;;;;;12.32;3.85;;;22.80;57.30;;;;;;5093057;28;20028;-76
2023/01/20 05:51:32;;;;;;;12.73;3.58;;;22.80;57.60;;;;;;5090832;28;20511;-78
2023/01/20 05:53:58;;;;;;;8.52;3.17;;;22.80;56.30;;;;;;5093191;28;20028;-76
2023/01/20 05:56:24;;;;;;;11.32;3.42;;;22.80;56.20;;;;;;5090820;28;20450;-75
2023/01/20 05:58:54;;;;;;;9.63;3.28;;;22.80;52.40;;;;;;5092989;28;20060;-74
2023/01/20 06:01:21;;;;;;;6.20;2.58;;;22.80;51.10;;;;;;5093377;28;20055;-74
2023/01/20 06:03:47;;;;;;;8.93;4.45;;;22.90;49.20;;;;;;5091830;28;20092;-75
2023/01/20 06:06:16;;;;;;;9.38;3.67;;;22.80;51.40;;;;;;5093104;28;20111;-75
2023/01/20 06:08:43;;;;;;;11.45;3.70;;;22.80;50.40;;;;;;5093117;28;20060;-75
2023/01/20 06:11:09;;;;;;;7.90;4.32;;;22.80;50.60;;;;;;5093002;28;20060;-74
2023/01/20 06:13:35;;;;;;;6.97;3.20;;;22.80;50.50;;;;;;5092748;28;20402;-75
2023/01/20 06:16:01;;;;;;;15.57;5.20;;;22.90;50.90;;;;;;5093104;28;20144;-75
2023/01/20 06:18:29;;;;;;;11.10;5.65;;;22.70;50.00;;;;;;5092874;28;20032;-75
2023/01/20 06:20:58;;;;;;;5.45;3.03;;;22.80;51.60;;;;;;5091451;28;20032;-76
2023/01/20 06:23:24;;;;;;;8.85;3.00;;;22.80;51.30;;;;;;5092984;28;20032;-77
2023/01/20 06:26:05;;;;;;;11.07;3.95;;;22.80;51.20;;;;;;5091178;28;20371;-76
2023/01/20 06:28:34;;;;;;;7.45;3.08;;;22.90;51.40;;;;;;5092721;28;20495;-75
2023/01/20 06:31:01;;;;;;;6.20;2.97;;;22.80;50.90;;;;;;5092556;28;20031;-76
2023/01/20 06:33:27;;;;;;;4.13;2.05;;;22.70;49.50;;;;;;5092430;28;20127;-76
2023/01/20 06:35:55;;;;;;;6.22;1.73;;;22.80;59.10;;;;;;5092545;28;20028;-77
2023/01/20 06:38:26;;;;;;;4.90;2.10;;;22.90;59.10;;;;;;5092767;28;20032;-76
2023/01/20 06:40:57;;;;;;;7.63;1.88;;;23.00;59.00;;;;;;5092534;28;20027;-77
2023/01/20 06:43:24;;;;;;;4.53;1.98;;;23.10;59.10;;;;;;5092194;28;20036;-76
2023/01/20 06:45:50;;;;;;;11.75;2.58;;;23.20;59.50;;;;;;5092271;28;20028;-76
2023/01/20 06:48:16;;;;;;;7.68;2.75;;;23.20;60.60;;;;;;5092300;28;20054;-75
2023/01/20 06:50:42;;;;;;;4.32;2.42;;;23.10;60.80;;;;;;5091828;28;20032;-76
2023/01/20 06:53:08;;;;;;;3.58;2.53;;;23.10;60.80;;;;;;5092176;28;20047;-76
2023/01/20 06:55:34;;;;;;;3.78;2.50;;;23.20;60.90;;;;;;5091465;28;20036;-75
2023/01/20 06:58:00;;;;;;;5.00;2.35;;;23.10;61.10;;;;;;5092195;28;20392;-77
2023/01/20 07:00:26;;;;;;;5.90;2.75;;;23.10;61.30;;;;;;5092201;28;20040;-77
2023/01/20 07:02:52;;;;;;;6.63;1.98;;;23.00;60.90;;;;;;5092099;28;20392;-77
2023/01/20 07:05:18;;;;;;;6.18;2.10;;;22.90;60.70;;;;;;5092087;28;20137;-78
2023/01/20 07:07:45;;;;;;;3.00;2.22;;;23.00;60.40;;;;;;5092010;28;20133;-79
2023/01/20 07:10:11;;;;;;;2.75;1.90;;;22.90;59.90;;;;;;5091386;28;20032;-78
2023/01/20 07:12:52;;;;;;;2.78;1.63;;;23.00;62.10;;;;;;5029007;28;20068;-82
2023/01/20 07:15:18;;;;;;;5.22;2.17;;;23.10;61.20;;;;;;5013056;28;20505;-84
2023/01/20 07:17:44;;;;;;;9.55;2.42;;;23.10;59.20;;;;;;5029160;28;20048;-82
2023/01/20 07:20:11;;;;;;;4.90;2.25;;;23.00;58.60;;;;;;5028495;28;20064;-82
2023/01/20 07:22:36;;;;;;;8.38;2.83;;;23.00;57.40;;;;;;5029328;28;20112;-80
2023/01/20 07:25:03;;;;;;;9.48;2.28;;;23.10;57.00;;;;;;5005240;28;20046;-79
2023/01/20 07:27:29;;;;;;;6.43;2.22;;;23.00;58.10;;;;;;4977085;28;20494;-77
2023/01/20 07:29:55;;;;;;;4.78;2.47;;;23.00;58.20;;;;;;5045963;28;20114;-81
2023/01/20 07:32:21;;;;;;;5.63;2.38;;;23.00;58.20;;;;;;5048568;28;20048;-79
2023/01/20 07:34:47;;;;;;;7.90;2.80;;;23.20;58.10;;;;;;5049332;28;20044;-78
2023/01/20 07:37:13;;;;;;;9.30;3.00;;;23.10;58.70;;;;;;5040943;28;20045;-77
2023/01/20 07:39:39;;;;;;;8.52;2.75;;;23.10;57.40;;;;;;5029093;28;20034;-80
2023/01/20 07:42:05;;;;;;;8.20;2.85;;;23.20;58.20;;;;;;5029072;28;20049;-80
2023/01/20 07:44:31;;;;;;;4.72;2.22;;;23.00;58.10;;;;;;5029238;28;20045;-80
2023/01/20 07:46:57;;;;;;;4.45;2.50;;;23.10;57.90;;;;;;5028726;28;20037;-81
2023/01/20 07:49:23;;;;;;;7.78;2.67;;;23.10;58.30;;;;;;5042975;28;20055;-79
2023/01/20 07:51:49;;;;;;;6.07;2.63;;;23.10;58.20;;;;;;5072657;28;20055;-79
2023/01/20 07:54:15;;;;;;;5.28;2.42;;;23.20;58.10;;;;;;5039311;28;20071;-78
2023/01/20 07:56:41;;;;;;;7.32;3.28;;;23.10;57.90;;;;;;5072463;28;20396;-78
2023/01/20 07:59:09;;;;;;;5.72;2.75;;;23.10;57.80;;;;;;5091522;28;20032;-79
2023/01/20 08:01:35;;;;;;;6.35;2.65;;;23.10;57.70;;;;;;5091166;28;20032;-80
2023/01/20 08:04:01;;;;;;;8.93;3.28;;;23.30;57.60;;;;;;5090428;28;20477;-76
2023/01/20 08:06:28;;;;;;;12.00;3.75;;;23.30;57.50;;;;;;5091189;28;20042;-77
2023/01/20 08:08:58;;;;;;;6.50;2.85;;;23.10;57.20;;;;;;5091230;28;20083;-77
2023/01/20 08:11:24;;;;;;;9.90;3.67;;;23.20;57.60;;;;;;5091129;28;20040;-77
2023/01/20 08:13:50;;;;;;;4.80;2.58;;;23.20;58.10;;;;;;5091384;28;20038;-75
2023/01/20 08:16:17;;;;;;;8.77;3.38;;;23.20;58.40;;;;;;5091706;28;20415;-76
2023/01/20 08:18:43;;;;;;;6.22;3.22;;;23.20;58.40;;;;;;5091105;28;20032;-75
2023/01/20 08:21:29;;;;;;;7.65;3.58;;;23.10;58.30;;;;;;5091032;28;20489;-75
2023/01/20 08:24:00;;;;;;;11.52;3.50;;;23.10;58.50;;;;;;5091305;28;20468;-77
2023/01/20 08:26:28;;;;;;;6.05;3.40;;;23.00;58.60;;;;;;5091230;28;20033;-78
2023/01/20 08:28:59;;;;;;;8.07;3.67;;;23.20;58.70;;;;;;5102574;28;20047;-77
2023/01/20 08:31:26;;;;;;;5.82;3.05;;;23.30;58.00;;;;;;5111357;28;20499;-76
2023/01/20 08:33:55;;;;;;;12.55;4.32;;;23.20;58.40;;;;;;5092123;28;20035;-84
2023/01/20 08:36:29;;;;;;;8.60;4.18;;;23.10;58.50;;;;;;5111759;28;20035;-74
2023/01/20 08:38:56;;;;;;;9.27;4.28;;;23.20;58.40;;;;;;5111386;28;20036;-77
2023/01/20 08:41:26;;;;;;;10.10;4.03;;;23.30;54.10;;;;;;5111343;28;20085;-79
2023/01/20 08:43:52;;;;;;;3.40;0.70;;;23.30;52.00;;;;;;5110978;28;20485;-76
2023/01/20 08:46:20;;;;;;;8.05;3.95;;;23.40;56.10;;;;;;5109369;28;20031;-78
2023/01/20 08:48:47;;;;;;;11.43;4.00;;;23.50;51.60;;;;;;5090869;28;20525;-78
2023/01/20 08:51:17;;;;;;;6.55;3.92;;;23.60;56.90;;;;;;5090378;28;20101;-77
2023/01/20 08:53:43;;;;;;;12.73;4.10;;;23.60;56.80;;;;;;5090501;28;20040;-76
2023/01/20 08:56:10;;;;;;;9.35;4.72;;;23.60;57.10;;;;;;5089351;28;20040;-75
2023/01/20 08:58:36;;;;;;;8.30;4.15;;;23.60;57.70;;;;;;5094290;28;20031;-77
2023/01/20 09:01:17;;;;;;;10.77;4.32;;;23.50;58.70;;;;;;5094248;28;20526;-78
2023/01/20 09:03:44;;;;;;;8.65;4.03;;;23.50;57.90;;;;;;5094440;28;20020;-77
2023/01/20 09:06:10;;;;;;;7.90;4.13;;;23.50;58.90;;;;;;5094311;28;20032;-76
2023/01/20 09:08:37;;;;;;;7.95;4.18;;;23.50;58.50;;;;;;5094169;28;20050;-76
2023/01/20 09:11:09;;;;;;;10.88;4.20;;;23.50;59.20;;;;;;5093963;28;20062;-76
2023/01/20 09:13:36;;;;;;;12.32;3.97;;;23.50;59.60;;;;;;5094270;28;20120;-83
2023/01/20 09:16:03;;;;;;;8.90;3.67;;;23.50;58.70;;;;;;5093986;28;20082;-73
2023/01/20 09:18:33;;;;;;;6.65;2.67;;;23.50;58.80;;;;;;5094094;28;20032;-72
2023/01/20 09:21:00;;;;;;;7.90;3.60;;;23.50;59.10;;;;;;5093764;28;20032;-74
2023/01/20 09:23:27;;;;;;;10.23;4.22;;;23.60;58.80;;;;;;5094209;28;20417;-74
2023/01/20 09:25:54;;;;;;;14.63;4.28;;;23.40;53.90;;;;;;5093832;28;20032;-76
2023/01/20 09:28:20;;;;;;;7.45;3.88;;;23.50;52.10;;;;;;5101746;28;20020;-75
2023/01/20 09:30:46;;;;;;;5.28;4.07;;;23.70;52.80;;;;;;5114362;28;20055;-72
2023/01/20 09:33:12;;;;;;;21.55;5.90;;;23.80;50.80;;;;;;5112878;28;20030;-76
2023/01/20 09:35:38;;;;;;;9.70;2.78;;;23.80;53.80;;;;;;5098293;28;20495;-75
2023/01/20 09:43:55;;;;;;;6.38;3.38;;;24.30;58.20;;;;;;5093354;28;20169;-74
2023/01/20 09:47:18;;;;;;;5.80;3.35;;;24.10;57.90;;;;;;5093825;28;20546;-73
2023/01/20 09:53:03;;;;;;;7.10;3.53;;;24.00;57.60;;;;;;5093138;28;20040;-74
2023/01/20 09:55:48;;;;;;;7.03;3.80;;;24.10;57.50;;;;;;5093614;28;20046;-74
2023/01/20 09:58:24;;;;;;;7.00;3.30;;;24.10;52.30;;;;;;5088754;28;20040;-75
2023/01/20 10:01:14;;;;;;;8.32;4.07;;;24.30;49.50;;;;;;5090384;28;20104;-74
2023/01/20 10:04:12;;;;;;;5.63;3.42;;;24.10;49.00;;;;;;5087157;28;20048;-74
2023/01/20 10:06:46;;;;;;;9.95;4.05;;;24.20;47.20;;;;;;5087371;28;20527;-76
2023/01/20 10:09:37;;;;;;;9.07;3.70;;;24.30;50.50;;;;;;5086370;28;20063;-77
2023/01/20 10:12:29;;;;;;;9.20;3.33;;;24.30;56.40;;;;;;5087128;28;20036;-76
2023/01/20 10:15:25;;;;;;;8.07;3.63;;;24.30;56.00;;;;;;5069982;28;20492;-77
2023/01/20 10:18:12;;;;;;;6.13;3.38;;;24.30;56.80;;;;;;5086934;28;20051;-76
2023/01/20 10:20:54;;;;;;;11.13;4.45;;;24.30;56.70;;;;;;5087319;28;20032;-75
2023/01/20 10:23:32;;;;;;;13.07;4.32;;;24.20;48.90;;;;;;5069495;28;20078;-75
2023/01/20 10:26:09;;;;;;;5.93;3.95;;;24.30;48.80;;;;;;5087351;28;20676;-75
2023/01/20 10:28:54;;;;;;;8.07;3.85;;;24.20;47.50;;;;;;5081445;28;20058;-75
2023/01/20 10:31:26;;;;;;;8.60;4.28;;;24.10;48.00;;;;;;5110315;28;20096;-76
2023/01/20 10:34:21;;;;;;;11.00;4.40;;;24.10;50.20;;;;;;5110519;28;20071;-74
2023/01/20 10:37:00;;;;;;;14.38;4.55;;;24.10;50.80;;;;;;5069395;28;20508;-73
2023/01/20 10:39:32;;;;;;;29.33;6.88;;;24.20;50.80;;;;;;5069589;28;20128;-72
2023/01/20 10:42:04;;;;;;;11.18;4.47;;;24.40;60.00;;;;;;5068919;28;20097;-73
2023/01/20 10:44:34;;;;;;;7.53;4.25;;;24.70;61.70;;;;;;5069377;28;20045;-73
2023/01/20 10:47:24;;;;;;;6.30;4.30;;;24.70;51.80;;;;;;5069530;28;20040;-71
2023/01/20 10:50:10;;;;;;;7.60;4.00;;;24.60;48.60;;;;;;5069190;28;20037;-72
2023/01/20 10:52:54;;;;;;;9.15;4.03;;;24.50;47.90;;;;;;5069506;28;20043;-73
2023/01/20 10:55:26;;;;;;;9.50;4.22;;;24.50;48.10;;;;;;5069371;28;20039;-75
2023/01/20 10:58:04;;;;;;;7.63;3.90;;;24.40;47.40;;;;;;5069731;28;20036;-79
2023/01/20 11:00:31;;;;;;;7.50;3.65;;;24.40;47.00;;;;;;5052253;28;20634;-77
2023/01/20 11:02:59;;;;;;;7.90;3.80;;;24.40;48.30;;;;;;5052262;28;20078;-78
2023/01/20 11:05:29;;;;;;;12.55;4.65;;;24.50;47.50;;;;;;5069579;28;20139;-77
2023/01/20 11:07:57;;;;;;;5.70;3.75;;;24.40;47.20;;;;;;5068818;28;20044;-77
2023/01/20 11:10:26;;;;;;;6.05;3.58;;;24.40;47.10;;;;;;5052602;28;20045;-78
2023/01/20 11:12:58;;;;;;;8.85;3.70;;;24.50;55.80;;;;;;5077954;28;20121;-77
2023/01/20 11:15:34;;;;;;;7.68;3.80;;;24.50;55.60;;;;;;5112364;28;20043;-74
2023/01/20 11:18:15;;;;;;;6.90;3.83;;;24.40;55.10;;;;;;5104080;28;20055;-75
2023/01/20 11:20:46;;;;;;;9.23;3.70;;;24.40;56.20;;;;;;5092076;28;20107;-74
2023/01/20 11:23:35;;;;;;;8.63;4.05;;;24.40;55.30;;;;;;5091741;28;20476;-74
2023/01/20 11:26:14;;;;;;;5.15;3.00;;;24.40;56.70;;;;;;5091674;28;20407;-72
2023/01/20 11:28:49;;;;;;;7.20;3.42;;;24.30;57.20;;;;;;5090168;28;20438;-74
2023/01/20 11:31:16;;;;;;;6.40;3.50;;;24.50;57.00;;;;;;5091347;28;20055;-74
2023/01/20 11:34:28;;;;;;;9.45;3.60;;;24.30;54.50;;;;;;5091519;28;20092;-74
2023/01/20 11:37:05;;;;;;;13.02;4.28;;;24.30;57.60;;;;;;5012576;28;20045;-74
2023/01/20 11:39:36;;;;;;;9.10;4.30;;;24.30;54.90;;;;;;5028782;28;20455;-74
2023/01/20 11:42:25;;;;;;;11.02;4.50;;;24.30;57.70;;;;;;5028921;28;20048;-74
2023/01/20 11:44:56;;;;;;;5.65;3.30;;;24.30;56.50;;;;;;5029196;28;20690;-74
2023/01/20 11:47:25;;;;;;;6.28;3.47;;;24.30;56.70;;;;;;5028899;28;20533;-75
2023/01/20 11:50:38;;;;;;;5.82;3.05;;;24.20;58.20;;;;;;5029137;28;20521;-75
2023/01/20 11:53:31;;;;;;;7.10;3.35;;;24.30;57.10;;;;;;4988985;28;20604;-74
2023/01/20 11:56:00;;;;;;;4.88;2.92;;;24.30;57.90;;;;;;4931288;29;20075;-75
2023/01/20 11:58:31;;;;;;;5.78;3.40;;;24.20;57.50;;;;;;4931541;29;20087;-75
2023/01/20 12:01:16;;;;;;;13.07;4.32;;;24.30;58.20;;;;;;4931661;29;20059;-74
2023/01/20 12:03:53;;;;;;;5.35;3.00;;;24.20;54.40;;;;;;4931411;29;20136;-75
2023/01/20 12:06:28;;;;;;;3.15;2.65;;;24.10;56.90;;;;;;4931450;29;20111;-75
2023/01/20 12:09:11;;;;;;;8.48;3.47;;;24.20;58.60;;;;;;4931460;29;20135;-77
2023/01/20 12:11:56;;;;;;;;;;;24.20;56.80;;;;;;4936352;29;20047;-74
2023/01/20 12:14:27;;;;;;;16.65;6.45;;;24.10;55.30;;;;;;4950245;28;19997;-79
2023/01/20 12:17:05;;;;;;;12.88;4.65;;;24.10;56.90;;;;;;4949995;28;20043;-78
2023/01/20 12:20:04;;;;;;;4.60;3.55;;;24.10;56.00;;;;;;4949915;28;20047;-79
2023/01/20 12:22:51;;;;;;;14.60;4.60;;;24.50;67.20;;;;;;4934437;29;20125;-75
2023/01/20 12:25:21;;;;;;;7.47;3.58;;;25.40;64.80;;;;;;4950095;29;20050;-75
2023/01/20 12:27:52;;;;;;;8.43;4.13;;;26.10;62.00;;;;;;4956079;28;20038;-75
2023/01/20 12:30:37;;;;;;;7.00;3.65;;;26.50;59.50;;;;;;5014252;28;20132;-74
2023/01/20 12:33:04;;;;;;;6.07;3.97;;;26.90;60.20;;;;;;5054468;28;20052;-74
2023/01/20 12:35:38;;;;;;;8.38;3.80;;;26.50;58.40;;;;;;5092550;28;20500;-73
2023/01/20 12:38:07;;;;;;;6.18;3.75;;;26.30;58.60;;;;;;5093708;28;20492;-76
2023/01/20 12:40:51;;;;;;;5.88;4.03;;;26.00;62.40;;;;;;5094697;28;20074;-74
2023/01/20 12:43:30;;;;;;;9.52;5.20;;;26.00;59.60;;;;;;5094663;28;20085;-75
2023/01/20 12:46:32;;;;;;;10.85;4.97;;;25.80;57.60;;;;;;5094564;28;20119;-75
2023/01/20 12:49:13;;;;;;;9.90;4.50;;;25.70;50.50;;;;;;5094591;28;20440;-74
2023/01/20 12:51:42;;;;;;;9.43;4.28;;;25.80;49.80;;;;;;5094620;28;20063;-75
2023/01/20 12:54:23;;;;;;;10.82;4.70;;;25.90;54.20;;;;;;5094235;28;20476;-75
2023/01/20 12:56:58;;;;;;;13.93;5.20;;;26.00;55.30;;;;;;5094364;28;20024;-74
2023/01/20 12:59:36;;;;;;;6.55;4.45;;;26.10;54.40;;;;;;5093034;28;20030;-75
2023/01/20 13:02:44;;;;;;;6.63;3.97;;;26.40;67.20;;;;;;5094210;28;20028;-76
2023/01/20 13:05:32;;;;;;;9.02;4.47;;;26.60;58.10;;;;;;5067273;28;20072;-80
2023/01/20 13:08:35;;;;;;;10.55;4.13;;;26.70;52.80;;;;;;5051421;28;20048;-77
2023/01/20 13:11:06;;;;;;;7.63;4.50;;;26.50;47.80;;;;;;5058936;28;20036;-76
2023/01/20 13:13:58;;;;;;;7.00;4.40;;;26.40;48.80;;;;;;5070613;28;20032;-75
2023/01/20 13:16:27;;;;;;;12.33;5.00;;;26.40;50.50;;;;;;5071291;28;20036;-77